createdAt,value
2018-02-08T04:51:36.970Z,0.00
2018-02-08T04:52:36.940Z,0.00
2018-02-08T04:54:29.822Z,0.00
2018-02-08T04:55:29.789Z,0.00
2018-02-08T04:57:23.649Z,0.00
2018-02-08T04:58:23.626Z,0.00
2018-02-08T05:00:16.514Z,0.00
2018-02-08T05:01:16.482Z,0.00
2018-02-08T05:03:09.369Z,0.00
2018-02-08T05:04:09.342Z,0.00
2018-02-08T05:06:02.213Z,0.00
2018-02-08T05:07:02.196Z,0.00
2018-02-08T05:08:55.109Z,0.00
2018-02-08T05:09:55.067Z,0.00
2018-02-08T05:11:47.944Z,0.00
2018-02-08T05:12:47.928Z,0.00
2018-02-08T05:14:42.308Z,0.00
2018-02-08T05:15:42.281Z,0.00
2018-02-08T05:17:35.161Z,0.00
2018-02-08T05:18:35.146Z,0.00
2018-02-08T05:20:28.034Z,0.00
2018-02-08T05:21:28.014Z,0.00
2018-02-08T05:23:20.896Z,0.00
2018-02-08T05:24:20.880Z,0.00
2018-02-08T05:26:13.772Z,0.00
2018-02-08T05:27:13.744Z,0.00
2018-02-08T05:28:13.737Z,0.00
2018-02-08T05:29:13.726Z,0.00
2018-02-08T05:30:13.710Z,0.00
2018-02-08T05:31:13.706Z,0.00
2018-02-08T05:32:13.695Z,0.00
2018-02-08T05:33:13.695Z,0.00
2018-02-08T05:34:13.682Z,0.00
2018-02-08T05:35:13.674Z,0.00
2018-02-08T05:36:13.667Z,0.00
2018-02-08T05:37:13.657Z,0.00
2018-02-08T05:38:13.652Z,0.00
2018-02-08T05:39:13.647Z,0.00
2018-02-08T05:40:13.640Z,0.00
2018-02-08T05:41:13.626Z,0.00
2018-02-08T05:42:13.626Z,0.00
2018-02-08T05:43:13.614Z,0.00
2018-02-08T05:44:13.609Z,0.00
2018-02-08T05:45:13.605Z,0.00
2018-02-08T05:46:13.587Z,0.00
2018-02-08T05:47:13.582Z,0.00
2018-02-08T05:48:13.570Z,0.00
2018-02-08T05:49:13.566Z,0.00
2018-02-08T05:50:13.558Z,0.00
2018-02-08T05:51:13.552Z,0.00
2018-02-08T05:52:13.542Z,0.00
2018-02-08T05:53:13.544Z,0.00
2018-02-08T05:54:13.572Z,0.00
2018-02-08T05:55:13.524Z,0.00
2018-02-08T05:56:13.513Z,0.00
2018-02-08T05:57:13.511Z,0.00
2018-02-08T05:58:13.493Z,0.00
2018-02-08T05:59:13.488Z,0.00
2018-02-08T06:00:13.531Z,0.00
2018-02-08T06:01:13.483Z,0.00
2018-02-08T06:02:13.468Z,0.00
2018-02-08T06:03:13.461Z,0.00
2018-02-08T06:04:13.456Z,0.00
2018-02-08T06:05:13.446Z,0.00
2018-02-08T06:06:13.438Z,0.00
2018-02-08T06:07:13.448Z,0.00
2018-02-08T06:08:13.427Z,0.00
2018-02-08T06:09:13.418Z,0.00
2018-02-08T06:10:13.413Z,0.00
2018-02-08T06:11:13.405Z,0.00
2018-02-08T06:12:13.389Z,0.00
2018-02-08T06:13:13.392Z,0.00
2018-02-08T06:14:13.385Z,0.00
2018-02-08T06:15:13.378Z,0.00
2018-02-08T06:16:13.361Z,0.00
2018-02-08T06:17:13.355Z,0.00
2018-02-08T06:18:13.348Z,0.00
2018-02-08T06:19:13.340Z,0.00
2018-02-08T06:20:13.336Z,0.00
2018-02-08T06:21:13.329Z,0.00
2018-02-08T06:22:13.319Z,0.00
2018-02-08T06:23:13.311Z,0.00
2018-02-08T06:24:13.299Z,0.00
2018-02-08T06:25:13.294Z,0.00
2018-02-08T06:26:13.288Z,0.00
2018-02-08T06:27:13.292Z,0.00
2018-02-08T06:28:13.274Z,0.00
2018-02-08T06:29:13.270Z,0.00
2018-02-08T06:30:13.259Z,0.00
2018-02-08T06:31:13.252Z,0.00
2018-02-08T06:32:13.244Z,0.00
2018-02-08T06:33:13.237Z,0.00
2018-02-08T06:34:13.251Z,0.00
2018-02-08T06:35:13.221Z,0.00
2018-02-08T06:36:13.214Z,0.00
2018-02-08T06:37:13.203Z,0.00
2018-02-08T06:38:13.199Z,0.00
2018-02-08T06:39:13.191Z,0.00
2018-02-08T06:40:13.185Z,0.00
2018-02-08T06:41:13.176Z,0.00
2018-02-08T06:42:13.207Z,0.00
2018-02-08T06:43:13.204Z,0.00
2018-02-08T06:44:13.190Z,0.00
2018-02-08T06:45:13.214Z,0.00
2018-02-08T06:46:13.174Z,0.00
2018-02-08T06:47:13.136Z,0.00
2018-02-08T06:48:13.124Z,0.00
2018-02-08T06:49:13.115Z,0.00
2018-02-08T06:50:13.107Z,0.00
2018-02-08T06:51:13.120Z,0.00
2018-02-08T06:52:13.096Z,0.00
2018-02-08T06:53:13.109Z,0.00
2018-02-08T06:54:13.096Z,0.00
2018-02-08T06:55:13.099Z,0.00
2018-02-08T06:56:13.083Z,0.00
2018-02-08T06:57:13.056Z,0.00
2018-02-08T06:58:13.097Z,0.00
2018-02-08T06:59:13.044Z,0.00
2018-02-08T07:00:13.036Z,0.00
2018-02-08T07:01:13.028Z,0.00
2018-02-08T07:02:13.018Z,0.00
2018-02-08T07:03:13.016Z,0.00
2018-02-08T07:04:13.018Z,0.00
2018-02-08T07:05:12.997Z,0.00
2018-02-08T07:06:12.991Z,0.00
2018-02-08T07:07:12.982Z,0.00
2018-02-08T07:08:12.975Z,0.00
2018-02-08T07:09:12.969Z,0.00
2018-02-08T07:10:12.961Z,0.00
2018-02-08T07:11:12.954Z,5.63
2018-02-08T07:12:12.946Z,5.63
2018-02-08T07:13:12.938Z,5.63
2018-02-08T07:14:12.933Z,5.63
2018-02-08T07:15:12.923Z,5.63
2018-02-08T07:16:12.921Z,5.63
2018-02-08T07:17:12.913Z,5.63
2018-02-08T07:18:12.900Z,5.63
2018-02-08T07:19:12.895Z,5.63
2018-02-08T07:20:12.883Z,5.63
2018-02-08T07:21:12.878Z,5.63
2018-02-08T07:22:12.872Z,5.63
2018-02-08T07:23:12.862Z,5.63
2018-02-08T07:24:12.857Z,5.63
2018-02-08T07:25:12.852Z,11.25
2018-02-08T07:26:12.841Z,11.25
2018-02-08T07:27:12.836Z,11.25
2018-02-08T07:28:12.825Z,11.25
2018-02-08T07:29:12.819Z,11.25
2018-02-08T07:30:12.828Z,11.25
2018-02-08T07:31:12.803Z,11.25
2018-02-08T07:32:12.791Z,16.88
2018-02-08T07:33:12.786Z,16.88
2018-02-08T07:34:12.784Z,16.88
2018-02-08T07:35:12.796Z,16.88
2018-02-08T07:36:12.766Z,16.88
2018-02-08T07:37:12.762Z,16.88
2018-02-08T07:38:12.752Z,16.88
2018-02-08T07:39:12.746Z,22.50
2018-02-08T07:40:12.737Z,22.50
2018-02-08T07:41:12.743Z,22.50
2018-02-08T07:42:12.739Z,22.50
2018-02-08T07:43:12.717Z,22.50
2018-02-08T07:44:12.705Z,22.50
2018-02-08T07:45:12.696Z,28.13
2018-02-08T07:46:12.693Z,28.13
2018-02-08T07:47:12.686Z,28.13
2018-02-08T07:48:12.680Z,28.13
2018-02-08T07:49:12.687Z,28.13
2018-02-08T07:50:12.661Z,33.75
2018-02-08T07:51:12.656Z,33.75
2018-02-08T07:52:12.647Z,33.75
2018-02-08T07:53:12.640Z,33.75
2018-02-08T07:54:12.632Z,39.38
2018-02-08T07:55:12.628Z,39.38
2018-02-08T07:56:12.621Z,39.38
2018-02-08T07:57:12.618Z,39.38
2018-02-08T07:58:12.613Z,39.38
2018-02-08T07:59:12.601Z,45.00
2018-02-08T08:00:12.601Z,45.00
2018-02-08T08:01:12.581Z,45.00
2018-02-08T08:02:12.571Z,50.63
2018-02-08T08:03:12.561Z,50.63
2018-02-08T08:04:12.559Z,50.63
2018-02-08T08:05:12.553Z,50.63
2018-02-08T08:06:12.544Z,56.25
2018-02-08T08:07:12.540Z,56.25
2018-02-08T08:08:12.525Z,56.25
2018-02-08T08:09:12.521Z,56.25
2018-02-08T08:10:12.517Z,61.88
2018-02-08T08:11:12.530Z,61.88
2018-02-08T08:12:12.501Z,61.88
2018-02-08T08:13:12.498Z,67.50
2018-02-08T08:14:12.488Z,67.50
2018-02-08T08:15:12.539Z,67.50
2018-02-08T08:16:12.473Z,67.50
2018-02-08T08:17:12.466Z,73.13
2018-02-08T08:18:12.467Z,73.13
2018-02-08T08:19:12.453Z,73.13
2018-02-08T08:20:12.440Z,73.13
2018-02-08T08:21:12.438Z,78.75
2018-02-08T08:22:12.447Z,78.75
2018-02-08T08:23:12.442Z,78.75
2018-02-08T08:24:12.417Z,78.75
2018-02-08T08:25:12.416Z,84.38
2018-02-08T08:26:12.420Z,84.38
2018-02-08T08:27:12.396Z,84.38
2018-02-08T08:28:12.389Z,84.38
2018-02-08T08:29:12.382Z,90.00
2018-02-08T08:30:12.376Z,90.00
2018-02-08T08:31:12.368Z,90.00
2018-02-08T08:32:12.367Z,95.63
2018-02-08T08:33:12.354Z,95.63
2018-02-08T08:34:12.348Z,95.63
2018-02-08T08:35:12.397Z,101.25
2018-02-08T08:36:12.328Z,101.25
2018-02-08T08:37:12.326Z,101.25
2018-02-08T08:38:12.323Z,101.25
2018-02-08T08:39:12.321Z,106.88
2018-02-08T08:40:12.303Z,106.88
2018-02-08T08:41:12.300Z,106.88
2018-02-08T08:42:12.292Z,106.88
2018-02-08T08:43:12.287Z,106.88
2018-02-08T08:44:12.278Z,106.88
2018-02-08T08:45:12.272Z,106.88
2018-02-08T08:46:12.276Z,112.50
2018-02-08T08:47:12.260Z,112.50
2018-02-08T08:48:12.250Z,112.50
2018-02-08T08:49:12.255Z,118.13
2018-02-08T08:50:12.232Z,123.75
2018-02-08T08:51:12.229Z,123.75
2018-02-08T08:52:12.221Z,129.38
2018-02-08T08:53:12.218Z,129.38
2018-02-08T08:54:12.212Z,129.38
2018-02-08T08:55:12.204Z,135.00
2018-02-08T08:56:12.199Z,135.00
2018-02-08T08:57:12.259Z,140.63
2018-02-08T08:58:12.181Z,146.25
2018-02-08T08:59:12.192Z,146.25
2018-02-08T09:00:12.181Z,151.88
2018-02-08T09:01:12.165Z,151.88
2018-02-08T09:02:12.173Z,157.50
2018-02-08T09:03:12.193Z,163.13
2018-02-08T09:04:12.163Z,157.50
2018-02-08T09:05:12.159Z,168.75
2018-02-08T09:06:12.134Z,180.00
2018-02-08T09:07:12.127Z,196.88
2018-02-08T09:08:12.139Z,196.88
2018-02-08T09:09:12.112Z,241.88
2018-02-08T09:10:12.107Z,365.63
2018-02-08T09:11:12.104Z,495.00
2018-02-08T09:12:12.105Z,506.25
2018-02-08T09:13:12.106Z,483.75
2018-02-08T09:14:12.081Z,337.50
2018-02-08T09:15:12.077Z,630.00
2018-02-08T09:16:12.107Z,635.63
2018-02-08T09:17:12.069Z,585.00
2018-02-08T09:18:12.058Z,579.38
2018-02-08T09:19:12.062Z,765.00
2018-02-08T09:20:12.044Z,714.38
2018-02-08T09:21:12.042Z,680.63
2018-02-08T09:22:12.039Z,646.88
2018-02-08T09:23:12.029Z,652.50
2018-02-08T09:24:12.021Z,630.00
2018-02-08T09:25:12.243Z,579.38
2018-02-08T09:26:12.010Z,528.75
2018-02-08T09:27:12.010Z,461.25
2018-02-08T09:28:12.160Z,450.00
2018-02-08T09:29:11.995Z,360.00
2018-02-08T09:30:12.272Z,292.50
2018-02-08T09:31:11.985Z,275.63
2018-02-08T09:32:11.974Z,264.38
2018-02-08T09:33:11.975Z,258.75
2018-02-08T09:34:11.968Z,264.38
2018-02-08T09:35:11.965Z,270.00
2018-02-08T09:36:11.965Z,264.38
2018-02-08T09:37:11.968Z,247.50
2018-02-08T09:38:11.952Z,247.50
2018-02-08T09:39:11.940Z,253.13
2018-02-08T09:40:11.934Z,258.75
2018-02-08T09:41:11.932Z,253.13
2018-02-08T09:42:11.927Z,247.50
2018-02-08T09:43:11.919Z,247.50
2018-02-08T09:44:11.913Z,236.25
2018-02-08T09:45:11.913Z,236.25
2018-02-08T09:46:11.905Z,241.88
2018-02-08T09:47:11.903Z,236.25
2018-02-08T09:48:11.893Z,230.63
2018-02-08T09:49:11.889Z,236.25
2018-02-08T09:50:11.880Z,236.25
2018-02-08T09:51:11.878Z,236.25
2018-02-08T09:52:11.871Z,236.25
2018-02-08T09:53:11.868Z,236.25
2018-02-08T09:54:11.877Z,225.00
2018-02-08T09:55:11.857Z,219.38
2018-02-08T09:56:11.855Z,208.13
2018-02-08T09:57:11.843Z,191.25
2018-02-08T09:58:11.840Z,191.25
2018-02-08T09:59:11.835Z,213.75
2018-02-08T10:00:11.836Z,225.00
2018-02-08T10:01:11.831Z,225.00
2018-02-08T10:02:11.821Z,219.38
2018-02-08T10:03:11.814Z,219.38
2018-02-08T10:04:11.810Z,213.75
2018-02-08T10:05:11.808Z,219.38
2018-02-08T10:06:11.799Z,225.00
2018-02-08T10:07:11.795Z,219.38
2018-02-08T10:08:11.787Z,225.00
2018-02-08T10:09:11.785Z,208.13
2018-02-08T10:10:11.784Z,202.50
2018-02-08T10:11:11.772Z,185.63
2018-02-08T10:12:11.767Z,180.00
2018-02-08T10:13:11.761Z,168.75
2018-02-08T10:14:11.760Z,157.50
2018-02-08T10:15:11.753Z,191.25
2018-02-08T10:16:11.746Z,180.00
2018-02-08T10:17:11.740Z,174.38
2018-02-08T10:18:11.735Z,191.25
2018-02-08T10:19:11.736Z,213.75
2018-02-08T10:20:11.723Z,202.50
2018-02-08T10:21:11.717Z,168.75
2018-02-08T10:22:11.712Z,174.38
2018-02-08T10:23:11.706Z,185.63
2018-02-08T10:24:11.702Z,163.13
2018-02-08T10:25:11.694Z,213.75
2018-02-08T10:26:11.688Z,174.38
2018-02-08T10:27:11.687Z,129.38
2018-02-08T10:28:11.677Z,118.13
2018-02-08T10:29:11.675Z,123.75
2018-02-08T10:30:11.666Z,135.00
2018-02-08T10:31:11.661Z,129.38
2018-02-08T10:32:11.651Z,123.75
2018-02-08T10:33:11.648Z,112.50
2018-02-08T10:34:11.644Z,112.50
2018-02-08T10:35:11.641Z,106.88
2018-02-08T10:36:11.631Z,118.13
2018-02-08T10:37:11.626Z,112.50
2018-02-08T10:38:11.620Z,112.50
2018-02-08T10:39:11.614Z,101.25
2018-02-08T10:40:11.608Z,90.00
2018-02-08T10:41:11.609Z,84.38
2018-02-08T10:42:11.597Z,84.38
2018-02-08T10:43:11.590Z,78.75
2018-02-08T10:44:11.590Z,84.38
2018-02-08T10:45:11.581Z,78.75
2018-02-08T10:46:11.576Z,78.75
2018-02-08T10:47:11.566Z,73.13
2018-02-08T10:48:11.558Z,73.13
2018-02-08T10:49:11.555Z,78.75
2018-02-08T10:50:11.549Z,90.00
2018-02-08T10:51:11.545Z,101.25
2018-02-08T10:52:11.536Z,95.63
2018-02-08T10:53:11.535Z,90.00
2018-02-08T10:54:11.525Z,90.00
2018-02-08T10:55:11.518Z,84.38
2018-02-08T10:56:11.513Z,84.38
2018-02-08T10:57:11.513Z,84.38
2018-02-08T10:58:11.502Z,84.38
2018-02-08T10:59:11.493Z,90.00
2018-02-08T11:00:11.486Z,84.38
2018-02-08T11:01:11.485Z,84.38
2018-02-08T11:02:11.472Z,90.00
2018-02-08T11:03:11.467Z,78.75
2018-02-08T11:04:11.465Z,78.75
2018-02-08T11:05:11.459Z,78.75
2018-02-08T11:06:11.454Z,78.75
2018-02-08T11:07:11.443Z,78.75
2018-02-08T11:08:11.437Z,73.13
2018-02-08T11:09:11.432Z,73.13
2018-02-08T11:10:11.421Z,73.13
2018-02-08T11:11:11.415Z,73.13
2018-02-08T11:12:11.415Z,73.13
2018-02-08T11:13:11.404Z,73.13
2018-02-08T11:14:11.397Z,73.13
2018-02-08T11:15:11.390Z,73.13
2018-02-08T11:16:11.383Z,90.00
2018-02-08T11:17:11.377Z,90.00
2018-02-08T11:18:11.371Z,78.75
2018-02-08T11:19:11.365Z,73.13
2018-02-08T11:20:11.360Z,73.13
2018-02-08T11:21:11.358Z,78.75
2018-02-08T11:22:11.345Z,73.13
2018-02-08T11:23:11.340Z,73.13
2018-02-08T11:24:11.363Z,78.75
2018-02-08T11:25:11.325Z,84.38
2018-02-08T11:26:11.352Z,84.38
2018-02-08T11:27:11.345Z,84.38
2018-02-08T11:28:11.325Z,106.88
2018-02-08T11:29:11.298Z,118.13
2018-02-08T11:30:11.288Z,106.88
2018-02-08T11:31:11.289Z,101.25
2018-02-08T11:32:11.278Z,95.63
2018-02-08T11:33:11.273Z,101.25
2018-02-08T11:34:11.279Z,95.63
2018-02-08T11:35:11.261Z,84.38
2018-02-08T11:36:11.253Z,90.00
2018-02-08T11:37:11.248Z,112.50
2018-02-08T11:38:11.237Z,95.63
2018-02-08T11:39:11.232Z,106.88
2018-02-08T11:40:11.227Z,112.50
2018-02-08T11:41:11.224Z,101.25
2018-02-08T11:42:11.214Z,101.25
2018-02-08T11:43:11.208Z,118.13
2018-02-08T11:44:11.200Z,112.50
2018-02-08T11:45:11.195Z,95.63
2018-02-08T11:46:11.188Z,90.00
2018-02-08T11:47:11.186Z,101.25
2018-02-08T11:48:11.176Z,90.00
2018-02-08T11:49:11.176Z,90.00
2018-02-08T11:50:11.166Z,84.38
2018-02-08T11:51:11.158Z,90.00
2018-02-08T11:52:11.150Z,95.63
2018-02-08T11:53:11.146Z,123.75
2018-02-08T11:54:11.136Z,123.75
2018-02-08T11:55:11.179Z,129.38
2018-02-08T11:56:11.123Z,123.75
2018-02-08T11:57:11.116Z,118.13
2018-02-08T11:58:11.109Z,118.13
2018-02-08T11:59:11.102Z,118.13
2018-02-08T12:00:11.099Z,118.13
2018-02-08T12:01:11.120Z,118.13
2018-02-08T12:02:11.086Z,118.13
2018-02-08T12:03:11.078Z,118.13
2018-02-08T12:04:11.067Z,112.50
2018-02-08T12:05:11.063Z,112.50
2018-02-08T12:06:11.056Z,112.50
2018-02-08T12:07:11.057Z,112.50
2018-02-08T12:08:11.045Z,112.50
2018-02-08T12:09:11.040Z,106.88
2018-02-08T12:10:11.032Z,101.25
2018-02-08T12:11:11.016Z,101.25
2018-02-08T12:12:11.019Z,101.25
2018-02-08T12:13:11.009Z,101.25
2018-02-08T12:14:11.003Z,101.25
2018-02-08T12:15:11.005Z,101.25
2018-02-08T12:16:11.002Z,101.25
2018-02-08T12:17:10.979Z,101.25
2018-02-08T12:18:10.985Z,101.25
2018-02-08T12:19:10.974Z,101.25
2018-02-08T12:20:10.966Z,95.63
2018-02-08T12:21:10.959Z,95.63
2018-02-08T12:22:10.954Z,95.63
2018-02-08T12:23:10.950Z,95.63
2018-02-08T12:24:10.941Z,95.63
2018-02-08T12:25:10.935Z,95.63
2018-02-08T12:26:10.928Z,90.00
2018-02-08T12:27:10.923Z,90.00
2018-02-08T12:28:10.913Z,90.00
2018-02-08T12:29:10.909Z,90.00
2018-02-08T12:30:10.904Z,90.00
2018-02-08T12:31:10.909Z,84.38
2018-02-08T12:32:10.889Z,84.38
2018-02-08T12:33:10.883Z,84.38
2018-02-08T12:34:10.879Z,78.75
2018-02-08T12:35:10.871Z,73.13
2018-02-08T12:36:10.861Z,78.75
2018-02-08T12:37:10.856Z,78.75
2018-02-08T12:38:10.858Z,78.75
2018-02-08T12:39:10.847Z,78.75
2018-02-08T12:40:10.840Z,78.75
2018-02-08T12:41:10.832Z,73.13
2018-02-08T12:42:10.854Z,73.13
2018-02-08T12:43:10.817Z,73.13
2018-02-08T12:44:10.811Z,73.13
2018-02-08T12:45:10.808Z,73.13
2018-02-08T12:46:10.800Z,73.13
2018-02-08T12:47:10.793Z,67.50
2018-02-08T12:48:10.787Z,73.13
2018-02-08T12:49:10.779Z,67.50
2018-02-08T12:50:10.805Z,67.50
2018-02-08T12:51:10.766Z,67.50
2018-02-08T12:52:10.760Z,67.50
2018-02-08T12:53:10.761Z,67.50
2018-02-08T12:54:10.748Z,67.50
2018-02-08T12:55:10.742Z,67.50
2018-02-08T12:56:10.732Z,67.50
2018-02-08T12:57:10.726Z,67.50
2018-02-08T12:58:10.722Z,67.50
2018-02-08T12:59:10.721Z,67.50
2018-02-08T13:00:10.698Z,61.88
2018-02-08T13:01:10.701Z,61.88
2018-02-08T13:02:10.691Z,61.88
2018-02-08T13:03:10.686Z,61.88
2018-02-08T13:04:10.682Z,56.25
2018-02-08T13:05:10.677Z,56.25
2018-02-08T13:06:10.665Z,50.63
2018-02-08T13:07:10.660Z,50.63
2018-02-08T13:08:10.652Z,56.25
2018-02-08T13:09:10.647Z,50.63
2018-02-08T13:10:10.641Z,50.63
2018-02-08T13:11:10.633Z,56.25
2018-02-08T13:12:10.632Z,56.25
2018-02-08T13:13:10.624Z,56.25
2018-02-08T13:14:10.611Z,56.25
2018-02-08T13:15:10.607Z,50.63
2018-02-08T13:16:10.601Z,50.63
2018-02-08T13:17:10.674Z,50.63
2018-02-08T13:18:10.588Z,50.63
2018-02-08T13:19:10.581Z,50.63
2018-02-08T13:20:10.571Z,50.63
2018-02-08T13:21:10.566Z,45.00
2018-02-08T13:22:10.560Z,45.00
2018-02-08T13:23:10.551Z,45.00
2018-02-08T13:24:10.545Z,45.00
2018-02-08T13:25:10.538Z,45.00
2018-02-08T13:26:10.533Z,45.00
2018-02-08T13:27:10.525Z,45.00
2018-02-08T13:28:10.516Z,45.00
2018-02-08T13:29:10.516Z,45.00
2018-02-08T13:30:10.499Z,45.00
2018-02-08T13:31:10.496Z,45.00
2018-02-08T13:32:10.539Z,45.00
2018-02-08T13:33:10.499Z,45.00
2018-02-08T13:34:10.476Z,45.00
2018-02-08T13:35:11.200Z,39.38
2018-02-08T13:36:10.466Z,39.38
2018-02-08T13:37:10.456Z,39.38
2018-02-08T13:38:10.449Z,39.38
2018-02-08T13:39:10.445Z,39.38
2018-02-08T13:40:10.438Z,39.38
2018-02-08T13:41:10.431Z,39.38
2018-02-08T13:42:10.421Z,39.38
2018-02-08T13:43:10.415Z,39.38
2018-02-08T13:44:10.408Z,39.38
2018-02-08T13:45:10.401Z,39.38
2018-02-08T13:46:10.396Z,39.38
2018-02-08T13:47:10.387Z,39.38
2018-02-08T13:48:10.386Z,33.75
2018-02-08T13:49:10.374Z,33.75
2018-02-08T13:50:10.365Z,33.75
2018-02-08T13:51:10.396Z,33.75
2018-02-08T13:52:10.351Z,33.75
2018-02-08T13:53:10.344Z,33.75
2018-02-08T13:54:10.337Z,33.75
2018-02-08T13:55:10.331Z,33.75
2018-02-08T13:56:10.324Z,33.75
2018-02-08T13:57:10.309Z,33.75
2018-02-08T13:58:10.308Z,33.75
2018-02-08T13:59:10.304Z,28.13
2018-02-08T14:00:10.294Z,28.13
2018-02-08T14:01:10.305Z,28.13
2018-02-08T14:02:10.282Z,28.13
2018-02-08T14:03:10.275Z,28.13
2018-02-08T14:04:10.268Z,28.13
2018-02-08T14:05:10.261Z,28.13
2018-02-08T14:06:10.253Z,28.13
2018-02-08T14:07:10.249Z,28.13
2018-02-08T14:08:10.239Z,28.13
2018-02-08T14:09:10.233Z,28.13
2018-02-08T14:10:10.227Z,28.13
2018-02-08T14:11:10.218Z,28.13
2018-02-08T14:12:10.211Z,28.13
2018-02-08T14:13:10.202Z,28.13
2018-02-08T14:14:10.199Z,28.13
2018-02-08T14:15:10.191Z,28.13
2018-02-08T14:16:10.203Z,28.13
2018-02-08T14:17:10.176Z,28.13
2018-02-08T14:18:10.169Z,28.13
2018-02-08T14:19:10.161Z,22.50
2018-02-08T14:20:10.158Z,22.50
2018-02-08T14:21:10.147Z,22.50
2018-02-08T14:22:10.145Z,22.50
2018-02-08T14:23:10.135Z,22.50
2018-02-08T14:24:10.127Z,22.50
2018-02-08T14:25:10.119Z,22.50
2018-02-08T14:26:10.112Z,22.50
2018-02-08T14:27:10.104Z,22.50
2018-02-08T14:28:10.099Z,22.50
2018-02-08T14:29:10.100Z,22.50
2018-02-08T14:30:10.084Z,22.50
2018-02-08T14:31:10.077Z,22.50
2018-02-08T14:32:10.072Z,22.50
2018-02-08T14:33:10.063Z,22.50
2018-02-08T14:34:10.056Z,22.50
2018-02-08T14:35:10.050Z,22.50
2018-02-08T14:36:10.042Z,22.50
2018-02-08T14:37:10.038Z,22.50
2018-02-08T14:38:10.027Z,16.88
2018-02-08T14:39:10.014Z,16.88
2018-02-08T14:40:10.011Z,16.88
2018-02-08T14:41:10.009Z,16.88
2018-02-08T14:42:10.001Z,16.88
2018-02-08T14:43:09.990Z,16.88
2018-02-08T14:44:09.983Z,16.88
2018-02-08T14:45:09.974Z,16.88
2018-02-08T14:46:09.970Z,16.88
2018-02-08T14:47:09.961Z,16.88
2018-02-08T14:48:09.954Z,16.88
2018-02-08T14:49:09.971Z,16.88
2018-02-08T14:50:09.940Z,16.88
2018-02-08T14:51:09.937Z,16.88
2018-02-08T14:52:09.927Z,16.88
2018-02-08T14:53:09.914Z,16.88
2018-02-08T14:54:09.909Z,16.88
2018-02-08T14:55:09.917Z,16.88
2018-02-08T14:56:09.903Z,16.88
2018-02-08T14:57:09.888Z,11.25
2018-02-08T14:58:09.886Z,11.25
2018-02-08T14:59:09.875Z,11.25
2018-02-08T15:00:09.874Z,11.25
2018-02-08T15:01:09.862Z,11.25
2018-02-08T15:02:09.857Z,11.25
2018-02-08T15:03:09.845Z,11.25
2018-02-08T15:04:09.838Z,11.25
2018-02-08T15:05:09.834Z,11.25
2018-02-08T15:06:09.819Z,11.25
2018-02-08T15:07:09.819Z,11.25
2018-02-08T15:08:09.809Z,11.25
2018-02-08T15:09:09.810Z,11.25
2018-02-08T15:10:09.797Z,11.25
2018-02-08T15:11:09.791Z,11.25
2018-02-08T15:12:09.778Z,11.25
2018-02-08T15:13:09.769Z,5.63
2018-02-08T15:14:09.769Z,5.63
2018-02-08T15:15:09.758Z,5.63
2018-02-08T15:16:09.761Z,5.63
2018-02-08T15:17:09.747Z,5.63
2018-02-08T15:18:09.737Z,5.63
2018-02-08T15:19:09.725Z,5.63
2018-02-08T15:20:09.718Z,5.63
2018-02-08T15:21:09.717Z,5.63
2018-02-08T15:22:09.707Z,5.63
2018-02-08T15:23:09.708Z,5.63
2018-02-08T15:24:09.692Z,5.63
2018-02-08T15:25:09.760Z,5.63
2018-02-08T15:26:09.681Z,5.63
2018-02-08T15:27:09.672Z,5.63
2018-02-08T15:28:09.748Z,5.63
2018-02-08T15:29:09.711Z,5.63
2018-02-08T15:30:09.651Z,5.63
2018-02-08T15:31:09.680Z,5.63
2018-02-08T15:32:09.633Z,5.63
2018-02-08T15:33:09.627Z,5.63
2018-02-08T15:34:09.616Z,5.63
2018-02-08T15:35:09.618Z,5.63
2018-02-08T15:36:09.614Z,5.63
2018-02-08T15:37:09.594Z,5.63
2018-02-08T15:38:09.588Z,5.63
2018-02-08T15:39:09.582Z,5.63
2018-02-08T15:40:09.573Z,5.63
2018-02-08T15:41:09.566Z,5.63
2018-02-08T15:42:09.559Z,5.63
2018-02-08T15:43:09.589Z,5.63
2018-02-08T15:44:09.543Z,5.63
2018-02-08T15:45:09.538Z,5.63
2018-02-08T15:46:09.548Z,5.63
2018-02-08T15:47:09.521Z,5.63
2018-02-08T15:48:09.517Z,5.63
2018-02-08T15:49:09.515Z,0.00
2018-02-08T15:50:09.500Z,0.00
2018-02-08T15:51:09.524Z,0.00
2018-02-08T15:52:09.487Z,0.00
2018-02-08T15:53:09.477Z,0.00
2018-02-08T15:54:09.474Z,0.00
2018-02-08T15:55:09.463Z,0.00
2018-02-08T15:56:09.458Z,0.00
2018-02-08T15:57:09.446Z,0.00
2018-02-08T15:58:09.441Z,0.00
2018-02-08T15:59:09.433Z,0.00
2018-02-08T16:00:09.423Z,0.00
2018-02-08T16:01:09.427Z,0.00
2018-02-08T16:02:09.416Z,0.00
2018-02-08T16:03:09.404Z,0.00
2018-02-08T16:04:09.399Z,0.00
2018-02-08T16:05:09.389Z,0.00
2018-02-08T16:06:09.380Z,0.00
2018-02-08T16:07:09.373Z,0.00
2018-02-08T16:08:09.362Z,0.00
2018-02-08T16:09:09.362Z,0.00
2018-02-08T16:10:09.357Z,0.00
2018-02-08T16:11:09.343Z,0.00
2018-02-08T16:12:09.333Z,0.00
2018-02-08T16:13:09.328Z,0.00
2018-02-08T16:14:09.325Z,0.00
2018-02-08T16:15:09.326Z,0.00
2018-02-08T16:16:09.306Z,0.00
2018-02-08T16:17:09.300Z,0.00
2018-02-08T16:18:09.290Z,0.00
2018-02-08T16:19:09.285Z,0.00
2018-02-08T16:20:09.274Z,0.00
2018-02-08T16:21:09.265Z,0.00
2018-02-08T16:22:09.263Z,0.00
2018-02-08T16:23:09.266Z,0.00
2018-02-08T16:24:09.246Z,0.00
2018-02-08T16:25:09.235Z,0.00
2018-02-08T16:26:09.230Z,0.00
2018-02-08T16:27:09.224Z,0.00
2018-02-08T16:28:09.220Z,0.00
2018-02-08T16:29:09.209Z,0.00
2018-02-08T16:30:09.250Z,0.00
2018-02-08T16:31:09.223Z,0.00
2018-02-08T16:32:09.205Z,0.00
2018-02-08T16:33:09.180Z,0.00
2018-02-08T16:34:09.173Z,0.00
2018-02-08T16:35:09.165Z,0.00
2018-02-08T16:36:09.156Z,0.00
2018-02-08T16:37:09.150Z,0.00
2018-02-08T16:38:09.142Z,0.00
2018-02-08T16:39:09.133Z,0.00
2018-02-08T16:40:09.139Z,0.00
2018-02-08T16:41:09.123Z,0.00
2018-02-08T16:42:09.111Z,0.00
2018-02-08T16:43:09.104Z,0.00
2018-02-08T16:44:09.100Z,0.00
2018-02-08T16:45:09.086Z,0.00
2018-02-08T16:46:09.082Z,0.00
2018-02-08T16:47:09.075Z,0.00
2018-02-08T16:48:09.068Z,0.00
2018-02-08T16:49:09.059Z,0.00
2018-02-08T16:50:09.054Z,0.00
2018-02-08T16:51:09.044Z,0.00
2018-02-08T16:52:09.037Z,0.00
2018-02-08T16:53:09.028Z,0.00
2018-02-08T16:54:09.024Z,0.00
2018-02-08T16:55:09.019Z,0.00
2018-02-08T16:56:09.004Z,0.00
2018-02-08T16:57:08.999Z,0.00
2018-02-08T16:58:08.991Z,0.00
2018-02-08T16:59:08.984Z,0.00
2018-02-08T17:00:08.976Z,0.00
2018-02-08T17:01:08.969Z,0.00
2018-02-08T17:02:08.965Z,0.00
2018-02-08T17:03:08.956Z,0.00
2018-02-08T17:04:08.945Z,0.00
2018-02-08T17:05:08.939Z,0.00
2018-02-08T17:06:08.937Z,0.00
2018-02-08T17:07:08.928Z,0.00
2018-02-08T17:08:08.916Z,0.00
2018-02-08T17:09:08.906Z,0.00
2018-02-08T17:10:08.901Z,0.00
2018-02-08T17:11:08.894Z,0.00
2018-02-08T17:12:08.886Z,0.00
2018-02-08T17:13:08.883Z,0.00
2018-02-08T17:14:08.870Z,0.00
2018-02-08T17:15:08.863Z,0.00
2018-02-08T17:16:08.857Z,0.00
2018-02-08T17:17:08.848Z,0.00
2018-02-08T17:18:08.840Z,0.00
2018-02-08T17:19:08.837Z,0.00
2018-02-08T17:20:08.831Z,0.00
2018-02-08T17:21:08.817Z,0.00
2018-02-08T17:22:08.811Z,0.00
2018-02-08T17:23:08.804Z,0.00
2018-02-08T17:24:08.795Z,0.00
2018-02-08T17:25:08.787Z,0.00
2018-02-08T17:26:08.778Z,0.00
2018-02-08T17:27:08.773Z,0.00
2018-02-08T17:28:08.764Z,0.00
2018-02-08T17:29:08.758Z,0.00
2018-02-08T17:30:08.747Z,0.00
2018-02-08T17:31:08.742Z,0.00
2018-02-08T17:32:08.737Z,0.00
2018-02-08T17:33:08.724Z,0.00
2018-02-08T17:34:08.723Z,0.00
2018-02-08T17:35:08.712Z,0.00
2018-02-08T17:36:08.703Z,0.00
2018-02-08T17:37:08.696Z,0.00
2018-02-08T17:38:08.689Z,0.00
2018-02-08T17:39:08.682Z,0.00
2018-02-08T17:40:08.694Z,0.00
2018-02-08T17:41:08.670Z,0.00
2018-02-08T17:42:08.661Z,0.00
2018-02-08T17:43:08.646Z,0.00
2018-02-08T17:44:08.674Z,0.00
2018-02-08T17:45:08.638Z,0.00
2018-02-08T17:46:08.628Z,0.00
2018-02-08T17:47:08.623Z,0.00
2018-02-08T17:48:08.645Z,0.00
2018-02-08T17:49:08.605Z,0.00
2018-02-08T17:50:08.597Z,0.00
2018-02-08T17:51:08.591Z,0.00
2018-02-08T17:52:08.584Z,0.00
2018-02-08T17:53:08.576Z,0.00
2018-02-08T17:54:08.570Z,0.00
2018-02-08T17:55:08.560Z,0.00
2018-02-08T17:56:08.554Z,0.00
2018-02-08T17:57:08.540Z,0.00
2018-02-08T17:58:08.548Z,0.00
2018-02-08T17:59:08.528Z,0.00